Time;durP1;ratioP1;P1;durP2;ratioP2;P2;SDS_P1;SDS_P2;PMS_P1;PMS_P2;Temp;Humidity;BMP_temperature;BMP_pressure;BME280_temperature;BME280_humidity;BME280_pressure;Samples;Min_cycle;Max_cycle;Signal;HPM_P1;HPM_P2
2022/04/02 00:00:28;;;;;;;5.37;2.20;;;5.80;54.10;;;;;;5058886;28;20021;-62
2022/04/02 00:02:55;;;;;;;5.27;2.00;;;5.80;54.20;;;;;;5056453;28;20056;-62
2022/04/02 00:05:27;;;;;;;4.83;2.20;;;5.80;54.20;;;;;;5055144;28;20035;-62
2022/04/02 00:07:53;;;;;;;6.10;2.17;;;5.80;54.20;;;;;;5054554;28;20036;-62
2022/04/02 00:10:18;;;;;;;6.37;2.27;;;5.80;54.10;;;;;;5055043;28;20029;-62
2022/04/02 00:12:45;;;;;;;4.70;2.00;;;5.80;54.10;;;;;;5067080;28;20020;-62
2022/04/02 00:15:11;;;;;;;6.20;2.40;;;5.80;54.00;;;;;;5065598;28;20033;-62
2022/04/02 00:17:36;;;;;;;5.93;2.27;;;5.80;54.10;;;;;;5054327;28;20171;-62
2022/04/02 00:20:04;;;;;;;6.03;2.13;;;5.80;54.20;;;;;;5068759;28;20048;-62
2022/04/02 00:22:30;;;;;;;4.87;2.10;;;5.80;54.20;;;;;;5053810;28;20037;-62
2022/04/02 00:24:56;;;;;;;4.73;1.90;;;5.80;54.20;;;;;;5054458;28;20025;-62
2022/04/02 00:27:22;;;;;;;5.67;2.10;;;5.80;54.20;;;;;;5066193;28;20408;-62
2022/04/02 00:29:47;;;;;;;4.83;1.97;;;5.70;54.20;;;;;;5058624;28;20044;-62
2022/04/02 00:32:13;;;;;;;5.07;2.00;;;5.70;54.30;;;;;;5053030;28;20033;-62
2022/04/02 00:34:39;;;;;;;4.67;1.87;;;5.70;54.30;;;;;;5054550;28;20063;-61
2022/04/02 00:37:05;;;;;;;5.17;2.23;;;5.70;54.30;;;;;;5072210;28;20021;-62
2022/04/02 00:39:30;;;;;;;6.83;2.33;;;5.80;54.40;;;;;;5046948;28;20067;-62
2022/04/02 00:41:56;;;;;;;5.03;2.17;;;5.70;54.30;;;;;;5067989;28;20028;-62
2022/04/02 00:44:25;;;;;;;7.40;2.40;;;5.70;54.30;;;;;;5053587;28;20445;-62
2022/04/02 00:46:50;;;;;;;6.67;2.33;;;5.70;54.40;;;;;;5069814;28;20051;-62
2022/04/02 00:49:16;;;;;;;5.17;1.80;;;5.70;54.50;;;;;;5073422;28;20024;-62
2022/04/02 00:51:43;;;;;;;4.97;2.20;;;5.70;54.40;;;;;;5057456;28;20042;-62
2022/04/02 00:54:17;;;;;;;6.00;2.20;;;5.70;54.40;;;;;;5053642;28;20159;-62
2022/04/02 00:56:43;;;;;;;7.53;2.10;;;5.70;54.40;;;;;;5055651;28;20040;-62
2022/04/02 00:59:10;;;;;;;4.30;1.80;;;5.70;54.40;;;;;;5053541;28;20025;-62
2022/04/02 01:01:37;;;;;;;4.70;1.80;;;5.70;54.50;;;;;;5063831;28;20038;-62
2022/04/02 01:04:05;;;;;;;7.57;2.30;;;5.60;54.50;;;;;;5063417;28;20036;-62
2022/04/02 01:06:39;;;;;;;3.93;1.90;;;5.60;54.50;;;;;;5060171;28;20333;-62
2022/04/02 01:09:05;;;;;;;6.70;2.30;;;5.60;54.40;;;;;;5052862;28;20036;-62
2022/04/02 01:11:41;;;;;;;6.67;2.43;;;5.60;54.40;;;;;;5063450;28;20036;-62
2022/04/02 01:14:08;;;;;;;7.33;2.30;;;5.60;54.40;;;;;;5068423;28;20361;-62
2022/04/02 01:16:34;;;;;;;5.20;2.30;;;5.60;54.40;;;;;;5053014;28;20453;-62
2022/04/02 01:19:05;;;;;;;5.33;2.07;;;5.60;54.40;;;;;;5053218;28;20106;-62
2022/04/02 01:21:31;;;;;;;6.90;2.23;;;5.60;54.40;;;;;;5066225;28;20036;-62
2022/04/02 01:24:04;;;;;;;6.10;1.83;;;5.60;54.40;;;;;;5060536;28;20029;-62
2022/04/02 01:26:31;;;;;;;5.07;2.07;;;5.60;54.40;;;;;;5056580;28;20025;-62
2022/04/02 01:29:07;;;;;;;5.07;2.00;;;5.60;54.40;;;;;;5067312;28;20056;-62
2022/04/02 01:31:46;;;;;;;4.47;1.67;;;5.60;54.40;;;;;;5069584;28;20370;-62
2022/04/02 01:34:18;;;;;;;4.43;1.87;;;5.60;54.30;;;;;;5048640;28;20094;-62
2022/04/02 01:36:45;;;;;;;5.87;2.17;;;5.60;54.40;;;;;;5069257;28;20024;-62
2022/04/02 01:39:23;;;;;;;4.37;1.90;;;5.60;54.40;;;;;;5075947;28;20020;-62
2022/04/02 01:41:49;;;;;;;4.17;1.87;;;5.60;54.30;;;;;;5056739;28;20028;-62
2022/04/02 01:44:19;;;;;;;5.03;1.80;;;5.60;54.30;;;;;;5052380;28;20061;-62
2022/04/02 01:46:44;;;;;;;6.10;2.30;;;5.50;54.20;;;;;;5055833;28;20059;-63
2022/04/02 01:49:10;;;;;;;5.63;2.10;;;5.50;54.20;;;;;;5057594;28;20028;-62
2022/04/02 01:51:37;;;;;;;6.43;2.10;;;5.60;54.20;;;;;;5056221;28;20457;-64
2022/04/02 01:54:05;;;;;;;4.73;1.90;;;5.50;54.20;;;;;;5054614;28;20130;-62
2022/04/02 01:56:31;;;;;;;4.97;1.80;;;5.50;54.20;;;;;;5063800;28;20064;-62
2022/04/02 01:58:59;;;;;;;8.27;2.03;;;5.50;54.20;;;;;;5056691;28;20163;-62
2022/04/02 02:01:28;;;;;;;5.83;2.37;;;5.50;54.20;;;;;;5057078;28;20043;-62
2022/04/02 02:03:53;;;;;;;5.37;2.17;;;5.50;54.20;;;;;;5056277;28;20033;-62
2022/04/02 02:06:19;;;;;;;6.17;2.37;;;5.50;54.20;;;;;;5058057;28;20037;-62
2022/04/02 02:08:48;;;;;;;5.40;2.07;;;5.50;54.30;;;;;;5042354;28;20037;-62
2022/04/02 02:11:27;;;;;;;6.73;2.23;;;5.50;54.30;;;;;;5058647;28;20039;-62
2022/04/02 02:14:05;;;;;;;5.53;2.07;;;5.50;54.30;;;;;;5056994;28;20106;-62
2022/04/02 02:16:31;;;;;;;5.83;2.20;;;5.50;54.30;;;;;;5057183;28;20028;-62
2022/04/02 02:18:57;;;;;;;5.43;2.10;;;5.50;54.40;;;;;;5064755;28;20130;-62
2022/04/02 02:21:22;;;;;;;5.50;1.83;;;5.50;54.40;;;;;;5067325;28;20148;-62
2022/04/02 02:23:51;;;;;;;5.40;1.87;;;5.50;54.40;;;;;;5056675;28;20029;-62
2022/04/02 02:26:17;;;;;;;4.77;1.80;;;5.50;54.50;;;;;;5056188;28;20354;-62
2022/04/02 02:28:43;;;;;;;5.67;2.17;;;5.50;54.60;;;;;;5060380;28;20453;-62
2022/04/02 02:31:16;;;;;;;6.17;1.90;;;5.40;54.60;;;;;;5055692;28;20048;-62
2022/04/02 02:36:28;;;;;;;3.87;1.80;;;5.40;54.80;;;;;;5066899;28;20090;-62
2022/04/02 02:38:58;;;;;;;4.87;1.80;;;5.40;54.80;;;;;;5056634;28;20029;-62
2022/04/02 02:41:37;;;;;;;4.47;1.90;;;5.40;54.80;;;;;;5055066;28;20511;-62
2022/04/02 02:44:06;;;;;;;5.53;2.03;;;5.40;54.80;;;;;;5074403;28;20047;-62
2022/04/02 02:46:42;;;;;;;6.20;2.10;;;5.40;54.90;;;;;;5064683;28;20472;-62
2022/04/02 02:49:26;;;;;;;7.10;2.23;;;5.40;55.00;;;;;;5064588;28;20021;-62
2022/04/02 02:51:55;;;;;;;6.67;1.90;;;5.40;55.00;;;;;;5055327;28;20350;-62
2022/04/02 02:54:26;;;;;;;4.77;2.03;;;5.40;54.90;;;;;;5041061;28;20426;-62
2022/04/02 02:56:56;;;;;;;6.27;2.30;;;5.30;55.50;;;;;;5057161;28;20465;-62
2022/04/02 02:59:21;;;;;;;6.47;2.10;;;5.30;54.90;;;;;;5055022;28;20029;-62
2022/04/02 03:01:47;;;;;;;4.73;1.97;;;5.30;54.90;;;;;;5055261;28;20033;-62
2022/04/02 03:04:18;;;;;;;4.83;1.77;;;5.30;54.90;;;;;;5056207;28;20158;-62
2022/04/02 03:06:45;;;;;;;5.83;1.93;;;5.30;54.90;;;;;;5063676;28;20032;-62
2022/04/02 03:09:10;;;;;;;5.07;2.13;;;5.30;55.50;;;;;;5072737;28;20024;-62
2022/04/02 03:11:36;;;;;;;5.37;2.03;;;5.30;55.00;;;;;;5057268;28;20033;-62
2022/04/02 03:14:02;;;;;;;5.03;2.10;;;5.30;55.10;;;;;;5067176;28;20051;-62
2022/04/02 03:16:28;;;;;;;5.03;2.10;;;5.30;55.00;;;;;;5066837;28;20439;-62
2022/04/02 03:19:00;;;;;;;5.50;2.23;;;5.30;55.00;;;;;;5052097;28;20021;-62
2022/04/02 03:21:28;;;;;;;5.30;2.00;;;5.30;55.10;;;;;;5053804;28;20025;-62
2022/04/02 03:23:55;;;;;;;5.07;2.20;;;5.30;55.20;;;;;;5042106;28;20022;-62
2022/04/02 03:26:21;;;;;;;4.03;1.87;;;5.30;55.20;;;;;;5034508;28;20025;-62
2022/04/02 03:28:47;;;;;;;4.30;1.70;;;5.20;55.20;;;;;;5066890;28;20116;-62
2022/04/02 03:31:17;;;;;;;4.83;1.80;;;5.20;55.30;;;;;;5054088;28;20076;-63
2022/04/02 03:33:43;;;;;;;4.83;2.03;;;5.20;55.40;;;;;;5048359;28;20022;-62
2022/04/02 03:36:10;;;;;;;5.50;2.23;;;5.20;55.40;;;;;;5033582;28;20022;-62
2022/04/02 03:38:40;;;;;;;5.57;2.07;;;5.20;55.40;;;;;;5034489;28;20061;-62
2022/04/02 03:41:13;;;;;;;5.13;2.13;;;5.20;55.40;;;;;;5019314;28;20041;-62
2022/04/02 03:43:39;;;;;;;5.30;1.90;;;5.20;55.40;;;;;;5038542;28;20043;-62
2022/04/02 03:48:49;;;;;;;4.93;2.03;;;5.20;55.50;;;;;;5060850;28;20029;-62
2022/04/02 03:51:15;;;;;;;7.57;2.40;;;5.20;55.70;;;;;;5043434;28;20030;-62
2022/04/02 03:53:41;;;;;;;5.47;2.30;;;5.10;55.70;;;;;;5038362;28;20065;-62
2022/04/02 03:56:10;;;;;;;4.47;1.80;;;5.10;55.70;;;;;;5036379;28;20044;-62
2022/04/02 03:58:41;;;;;;;4.73;1.97;;;5.10;55.80;;;;;;5021458;28;20025;-62
2022/04/02 04:01:11;;;;;;;4.53;2.00;;;5.10;55.70;;;;;;5037589;28;20021;-62
2022/04/02 04:03:37;;;;;;;5.60;2.27;;;5.10;55.80;;;;;;5050724;28;20030;-62
2022/04/02 04:06:04;;;;;;;4.57;1.70;;;5.10;55.80;;;;;;5036618;28;20123;-62
2022/04/02 04:08:31;;;;;;;4.97;1.97;;;5.10;55.90;;;;;;5042485;28;20029;-62
2022/04/02 04:10:58;;;;;;;6.73;2.17;;;5.10;55.90;;;;;;5053598;28;20029;-62
2022/04/02 04:13:23;;;;;;;5.27;2.10;;;5.10;55.80;;;;;;5047935;28;20087;-62
2022/04/02 04:15:51;;;;;;;5.60;2.33;;;5.10;55.80;;;;;;5037580;28;20087;-62
2022/04/02 04:18:16;;;;;;;4.83;1.80;;;5.10;55.80;;;;;;5037624;28;20439;-62
2022/04/02 04:20:43;;;;;;;5.17;2.03;;;5.10;55.70;;;;;;5036381;28;20028;-62
2022/04/02 04:23:14;;;;;;;4.82;1.75;;;5.10;55.80;;;;;;5041444;28;20033;-62
2022/04/02 04:25:41;;;;;;;5.53;2.03;;;5.00;55.70;;;;;;5052254;28;20175;-63
2022/04/02 04:28:08;;;;;;;5.43;2.03;;;5.10;55.80;;;;;;5033361;28;20109;-62
2022/04/02 04:30:35;;;;;;;5.23;2.17;;;5.10;55.80;;;;;;5031805;28;20124;-62
2022/04/02 04:33:02;;;;;;;6.33;2.20;;;5.00;55.80;;;;;;5040241;28;20040;-62
2022/04/02 04:35:29;;;;;;;5.60;2.10;;;5.00;55.80;;;;;;5048907;28;20017;-62
2022/04/02 04:37:54;;;;;;;6.83;2.20;;;5.00;55.80;;;;;;5061939;28;20107;-62
2022/04/02 04:40:24;;;;;;;5.83;1.90;;;5.10;55.90;;;;;;5057324;28;20029;-62
2022/04/02 04:42:51;;;;;;;6.37;2.67;;;5.00;55.90;;;;;;5063577;28;20020;-62
2022/04/02 04:45:22;;;;;;;5.00;1.90;;;5.00;55.90;;;;;;5064377;28;20393;-62
2022/04/02 04:47:50;;;;;;;6.30;2.07;;;5.00;56.00;;;;;;5053555;28;20512;-62
2022/04/02 04:50:19;;;;;;;6.57;2.30;;;5.00;56.00;;;;;;5061066;28;20028;-62
2022/04/02 04:52:47;;;;;;;7.87;2.10;;;5.00;56.00;;;;;;5063635;28;20025;-62
2022/04/02 04:55:13;;;;;;;6.13;2.47;;;5.00;56.00;;;;;;5066480;28;20424;-62
2022/04/02 04:57:39;;;;;;;5.43;2.43;;;5.00;56.60;;;;;;5070124;28;20047;-62
2022/04/02 05:00:15;;;;;;;4.43;2.00;;;5.00;56.10;;;;;;5061553;28;20036;-62
2022/04/02 05:02:44;;;;;;;6.70;2.10;;;5.00;56.10;;;;;;5053457;28;20488;-62
2022/04/02 05:05:12;;;;;;;7.77;2.40;;;5.00;56.10;;;;;;5068040;28;20060;-62
2022/04/02 05:07:41;;;;;;;5.77;2.13;;;5.00;56.20;;;;;;5078282;28;20029;-62
2022/04/02 05:10:08;;;;;;;5.37;1.93;;;5.00;56.20;;;;;;5060196;28;20025;-62
2022/04/02 05:12:36;;;;;;;5.80;2.00;;;5.00;56.20;;;;;;5022912;28;20029;-62
2022/04/02 05:15:02;;;;;;;5.23;2.13;;;5.00;56.20;;;;;;5054000;28;20021;-62
2022/04/02 05:17:28;;;;;;;4.63;1.90;;;5.00;56.20;;;;;;5057541;28;20025;-62
2022/04/02 05:19:54;;;;;;;5.90;1.97;;;5.10;56.30;;;;;;5058387;28;20358;-62
2022/04/02 05:22:20;;;;;;;5.73;1.97;;;5.10;56.30;;;;;;5057628;28;20033;-62
2022/04/02 05:24:49;;;;;;;5.13;2.10;;;5.00;56.90;;;;;;5057027;28;20036;-61
2022/04/02 05:27:16;;;;;;;6.40;2.10;;;5.00;56.30;;;;;;5056993;28;20033;-62
2022/04/02 05:29:43;;;;;;;4.70;1.93;;;5.00;56.30;;;;;;5059220;28;21407;-62
2022/04/02 05:32:10;;;;;;;6.30;2.27;;;5.00;56.40;;;;;;5060576;28;20029;-62
2022/04/02 05:34:36;;;;;;;6.20;2.10;;;5.00;56.50;;;;;;5065849;28;20079;-62
2022/04/02 05:37:02;;;;;;;5.40;2.50;;;5.00;56.50;;;;;;5076905;28;20033;-62
2022/04/02 05:39:28;;;;;;;5.87;2.30;;;5.00;56.60;;;;;;5076247;28;20050;-62
2022/04/02 05:41:53;;;;;;;6.10;2.40;;;5.00;56.60;;;;;;5059863;28;20142;-62
2022/04/02 05:44:19;;;;;;;6.03;2.23;;;5.00;56.60;;;;;;5059801;28;20066;-62
2022/04/02 05:46:44;;;;;;;8.60;2.87;;;5.00;56.70;;;;;;5060067;28;20037;-63
2022/04/02 05:49:11;;;;;;;7.93;2.60;;;5.00;56.70;;;;;;5056023;28;20043;-62
2022/04/02 05:51:37;;;;;;;6.37;2.23;;;5.00;56.80;;;;;;5057057;28;20024;-62
2022/04/02 05:54:03;;;;;;;6.17;2.37;;;5.00;56.90;;;;;;5057112;28;20029;-62
2022/04/02 05:56:30;;;;;;;4.93;2.17;;;5.00;56.90;;;;;;5057326;28;20032;-62
2022/04/02 05:58:56;;;;;;;5.90;2.40;;;5.00;56.90;;;;;;5057197;28;20401;-62
2022/04/02 06:01:22;;;;;;;6.43;2.43;;;5.00;56.90;;;;;;5056172;28;20078;-62
2022/04/02 06:03:47;;;;;;;6.43;2.37;;;5.00;57.00;;;;;;5056353;28;20112;-62
2022/04/02 06:06:14;;;;;;;5.57;2.33;;;5.00;57.00;;;;;;5056914;28;20041;-62
2022/04/02 06:08:39;;;;;;;6.53;2.27;;;5.00;57.00;;;;;;5056888;28;20033;-62
2022/04/02 06:11:08;;;;;;;8.47;2.60;;;5.00;57.10;;;;;;5057278;28;20350;-62
2022/04/02 06:13:34;;;;;;;6.93;3.03;;;5.00;57.10;;;;;;5057145;28;20048;-63
2022/04/02 06:16:00;;;;;;;6.47;2.33;;;5.10;57.20;;;;;;5056775;28;20346;-63
2022/04/02 06:18:26;;;;;;;5.63;2.20;;;5.10;57.10;;;;;;5055942;28;20025;-63
2022/04/02 06:20:51;;;;;;;6.90;2.53;;;5.10;57.10;;;;;;5056863;28;20032;-63
2022/04/02 06:23:18;;;;;;;6.00;2.47;;;5.10;57.20;;;;;;5056442;28;20408;-62
2022/04/02 06:25:44;;;;;;;6.87;3.07;;;5.10;57.30;;;;;;5055669;28;20021;-62
2022/04/02 06:28:10;;;;;;;5.90;2.43;;;5.20;57.30;;;;;;5057061;28;20545;-62
2022/04/02 06:30:36;;;;;;;7.57;2.60;;;5.20;57.20;;;;;;5059122;28;20052;-62
2022/04/02 06:33:02;;;;;;;6.20;2.40;;;5.30;57.30;;;;;;5060567;28;20515;-62
2022/04/02 06:35:28;;;;;;;5.90;2.47;;;5.30;57.20;;;;;;5062455;28;20021;-62
2022/04/02 06:37:56;;;;;;;5.97;2.40;;;5.50;57.20;;;;;;5041161;28;20024;-62
2022/04/02 06:40:23;;;;;;;7.23;3.03;;;5.60;57.00;;;;;;5056485;28;20506;-62
2022/04/02 06:42:49;;;;;;;6.10;2.47;;;5.70;56.90;;;;;;5076587;28;20040;-62
2022/04/02 06:45:31;;;;;;;;;;;5.80;56.80;;;;;;5063405;28;20025;-62
2022/04/02 06:47:57;;;;;;;17.80;3.10;;;5.80;56.70;;;;;;5056613;28;20390;-63
2022/04/02 06:50:23;;;;;;;5.97;2.30;;;5.80;56.60;;;;;;5058255;28;20036;-63
2022/04/02 06:52:48;;;;;;;7.10;2.93;;;5.90;56.50;;;;;;5070092;28;20025;-62
2022/04/02 06:55:15;;;;;;;5.60;2.50;;;6.00;56.40;;;;;;5058806;28;20025;-62
2022/04/02 06:57:48;;;;;;;5.90;2.43;;;6.10;56.30;;;;;;5056056;28;20029;-62
2022/04/02 07:00:15;;;;;;;8.03;2.40;;;6.20;56.20;;;;;;5053767;28;20029;-62
2022/04/02 07:02:41;;;;;;;5.67;2.20;;;6.20;56.10;;;;;;5056724;28;20020;-62
2022/04/02 07:05:08;;;;;;;7.20;2.63;;;6.30;56.00;;;;;;5071055;28;20029;-63
2022/04/02 07:07:33;;;;;;;8.93;2.83;;;6.40;55.90;;;;;;5035547;28;20055;-62
2022/04/02 07:09:59;;;;;;;5.73;2.20;;;6.50;55.80;;;;;;5038351;28;20446;-62
2022/04/02 07:12:25;;;;;;;5.83;2.50;;;6.60;55.80;;;;;;5057893;28;20029;-62
2022/04/02 07:14:50;;;;;;;7.17;2.77;;;6.60;55.60;;;;;;5059106;28;20032;-63
2022/04/02 07:17:16;;;;;;;7.20;2.40;;;6.70;55.60;;;;;;5057330;28;20108;-62
2022/04/02 07:19:42;;;;;;;6.37;2.50;;;6.70;55.60;;;;;;5054812;28;20029;-62
2022/04/02 07:22:09;;;;;;;6.45;2.30;;;6.70;55.60;;;;;;5055115;28;20060;-62
2022/04/02 07:24:39;;;;;;;5.83;2.10;;;6.80;55.50;;;;;;5056331;28;20314;-63
2022/04/02 07:27:05;;;;;;;6.07;2.70;;;6.80;55.40;;;;;;5056272;28;20044;-63
2022/04/02 07:29:35;;;;;;;7.33;2.47;;;7.00;55.30;;;;;;5054312;28;20374;-63
2022/04/02 07:32:01;;;;;;;7.63;3.20;;;7.10;55.10;;;;;;5056270;28;20043;-62
2022/04/02 07:34:27;;;;;;;6.77;2.43;;;7.20;54.90;;;;;;5056081;28;20033;-62
2022/04/02 07:37:06;;;;;;;8.50;2.73;;;7.40;54.60;;;;;;5055676;28;20035;-63
2022/04/02 07:40:00;;;;;;;5.77;2.40;;;7.50;54.40;;;;;;5055599;28;20442;-62
2022/04/02 07:42:37;;;;;;;6.28;2.63;;;7.70;54.20;;;;;;5055811;28;20072;-63
2022/04/02 07:45:08;;;;;;;6.32;2.80;;;7.80;54.00;;;;;;5055436;28;20341;-63
2022/04/02 07:47:36;;;;;;;6.30;2.53;;;7.80;53.90;;;;;;5055643;28;20059;-62
2022/04/02 07:50:13;;;;;;;6.07;2.80;;;7.90;53.80;;;;;;5055555;28;20347;-62
2022/04/02 07:52:43;;;;;;;6.75;2.25;;;8.10;53.60;;;;;;5055720;28;20126;-63
2022/04/02 07:55:11;;;;;;;6.72;2.42;;;8.10;53.50;;;;;;5055006;28;20039;-63
2022/04/02 07:57:42;;;;;;;6.40;2.25;;;8.20;53.40;;;;;;5055858;28;20052;-63
2022/04/02 08:00:12;;;;;;;5.22;2.25;;;8.30;53.30;;;;;;5055398;28;20048;-63
2022/04/02 08:02:42;;;;;;;7.03;2.75;;;8.30;53.30;;;;;;5055484;28;20108;-62
2022/04/02 08:05:10;;;;;;;6.50;2.53;;;8.20;54.00;;;;;;5054153;28;20037;-63
2022/04/02 08:07:39;;;;;;;5.50;2.50;;;8.10;53.40;;;;;;5037482;28;20369;-62
2022/04/02 08:10:07;;;;;;;7.10;2.70;;;8.00;53.60;;;;;;5055529;28;20035;-62
2022/04/02 08:12:39;;;;;;;6.10;2.40;;;7.90;53.70;;;;;;5054127;28;20029;-62
2022/04/02 08:15:08;;;;;;;6.75;2.53;;;7.80;53.80;;;;;;5056598;28;20025;-63
2022/04/02 08:17:34;;;;;;;6.78;2.67;;;7.80;53.90;;;;;;5065630;28;20096;-62
2022/04/02 08:20:01;;;;;;;6.50;2.38;;;7.80;53.80;;;;;;5071144;28;20021;-62
2022/04/02 08:22:27;;;;;;;7.13;2.47;;;7.80;53.90;;;;;;5069246;28;20037;-66
2022/04/02 08:24:55;;;;;;;8.23;2.70;;;7.70;53.90;;;;;;5055831;28;20044;-63
2022/04/02 08:27:40;;;;;;;5.93;2.45;;;7.70;53.90;;;;;;5058430;28;20051;-63
2022/04/02 08:30:09;;;;;;;8.23;2.83;;;7.80;53.80;;;;;;5074705;28;20091;-63
2022/04/02 08:32:56;;;;;;;7.95;3.17;;;8.00;53.70;;;;;;5068421;28;20025;-62
2022/04/02 08:36:03;;;;;;;8.50;3.10;;;8.40;53.40;;;;;;5058314;28;20055;-62
2022/04/02 08:38:50;;;;;;;7.75;2.90;;;8.70;52.80;;;;;;5061843;28;20072;-63
2022/04/02 08:41:36;;;;;;;5.70;2.40;;;8.80;52.30;;;;;;5064790;28;20103;-62
2022/04/02 08:44:31;;;;;;;7.22;3.28;;;8.80;52.40;;;;;;5063830;28;20116;-63
2022/04/02 08:47:25;;;;;;;8.95;2.95;;;8.90;52.50;;;;;;5061068;28;20025;-63
2022/04/02 08:50:14;;;;;;;6.90;2.42;;;9.20;52.20;;;;;;5054905;28;20048;-63
2022/04/02 08:53:06;;;;;;;5.95;2.78;;;9.60;51.80;;;;;;5053730;28;20033;-62
2022/04/02 08:55:44;;;;;;;8.80;3.42;;;9.70;51.40;;;;;;5054784;28;20064;-62
2022/04/02 08:58:58;;;;;;;7.18;3.53;;;10.00;51.10;;;;;;5054742;28;20028;-62
2022/04/02 09:01:27;;;;;;;6.82;2.95;;;10.50;50.80;;;;;;5055093;28;20053;-62
2022/04/02 09:04:21;;;;;;;7.40;3.30;;;10.90;50.10;;;;;;5054031;28;20028;-63
2022/04/02 09:06:49;;;;;;;6.32;2.58;;;11.10;49.20;;;;;;5054462;28;20044;-63
2022/04/02 09:09:39;;;;;;;10.73;2.60;;;11.00;49.30;;;;;;5054565;28;20033;-63
2022/04/02 09:12:23;;;;;;;6.93;2.45;;;10.90;49.20;;;;;;5054472;28;20017;-63
2022/04/02 09:15:08;;;;;;;6.43;3.00;;;10.50;49.20;;;;;;5055044;28;20071;-63
2022/04/02 09:18:11;;;;;;;6.25;2.47;;;10.10;49.60;;;;;;5055104;28;20032;-62
2022/04/02 09:20:46;;;;;;;5.70;2.40;;;9.70;50.20;;;;;;5056053;28;20047;-62
2022/04/02 09:24:08;;;;;;;5.78;2.55;;;9.40;50.60;;;;;;5072778;28;20029;-63
2022/04/02 09:26:33;;;;;;;6.30;2.90;;;9.10;51.00;;;;;;5071905;28;20044;-62
2022/04/02 09:29:21;;;;;;;12.20;2.80;;;8.90;51.50;;;;;;5060177;28;20036;-62
2022/04/02 09:32:08;;;;;;;6.55;2.60;;;8.70;51.50;;;;;;5057467;28;20120;-62
2022/04/02 09:34:56;;;;;;;5.82;2.50;;;8.50;51.60;;;;;;5053525;28;20041;-63
2022/04/02 09:37:40;;;;;;;6.65;2.70;;;8.40;51.80;;;;;;5064918;28;20093;-63
2022/04/02 09:40:09;;;;;;;8.77;2.92;;;8.40;51.80;;;;;;5067002;28;20106;-62
2022/04/02 09:42:43;;;;;;;6.07;3.00;;;8.50;51.90;;;;;;5071932;28;20380;-63
2022/04/02 09:45:17;;;;;;;7.82;3.28;;;8.50;51.80;;;;;;5073465;28;20033;-63
2022/04/02 09:47:48;;;;;;;6.78;2.70;;;8.70;51.60;;;;;;5061394;28;20029;-62
2022/04/02 09:50:15;;;;;;;7.22;2.38;;;8.80;51.10;;;;;;5066124;28;20170;-62
2022/04/02 09:53:14;;;;;;;8.77;3.33;;;8.90;51.00;;;;;;5074655;28;20056;-63
2022/04/02 09:55:48;;;;;;;6.18;2.75;;;8.90;50.90;;;;;;5059973;28;20175;-62
2022/04/02 09:58:58;;;;;;;6.47;2.80;;;9.00;50.80;;;;;;5060952;28;20033;-62
2022/04/02 10:01:47;;;;;;;5.88;2.58;;;9.00;50.40;;;;;;5048372;28;20488;-63
2022/04/02 10:04:32;;;;;;;6.10;2.45;;;9.00;50.20;;;;;;5056683;28;20095;-62
2022/04/02 10:07:01;;;;;;;5.45;2.47;;;8.90;50.00;;;;;;5056392;28;20029;-62
2022/04/02 10:09:32;;;;;;;6.00;2.58;;;8.90;50.20;;;;;;5035256;28;20033;-62
2022/04/02 10:12:00;;;;;;;6.10;2.50;;;8.80;49.80;;;;;;5043268;28;20034;-62
2022/04/02 10:14:28;;;;;;;6.47;2.22;;;8.70;49.70;;;;;;5019617;28;20091;-62
2022/04/02 10:17:02;;;;;;;5.40;1.80;;;8.70;49.70;;;;;;5036479;28;20470;-62
2022/04/02 10:19:37;;;;;;;6.25;2.38;;;8.60;49.50;;;;;;5039765;28;20366;-62
2022/04/02 10:22:05;;;;;;;4.78;2.00;;;8.60;49.40;;;;;;5035916;28;20025;-62
2022/04/02 10:24:39;;;;;;;5.60;2.38;;;8.60;49.30;;;;;;5035522;28;20033;-62
2022/04/02 10:27:07;;;;;;;5.25;2.10;;;8.70;49.00;;;;;;5039142;28;20053;-63
2022/04/02 10:30:00;;;;;;;5.32;1.83;;;8.70;48.70;;;;;;5038030;28;20450;-62
2022/04/02 10:32:45;;;;;;;4.93;2.00;;;8.70;48.30;;;;;;5038275;28;20324;-63
2022/04/02 10:35:13;;;;;;;4.22;1.85;;;8.60;48.40;;;;;;5035345;28;20331;-63
2022/04/02 10:37:43;;;;;;;4.75;1.75;;;8.60;48.40;;;;;;5035119;28;20021;-62
2022/04/02 10:40:11;;;;;;;5.07;2.13;;;8.70;48.00;;;;;;5035105;28;20038;-63
2022/04/02 10:42:39;;;;;;;5.00;2.08;;;8.80;47.70;;;;;;5038492;28;20032;-62
2022/04/02 10:45:11;;;;;;;4.80;2.00;;;8.90;47.40;;;;;;5039147;28;20041;-63
2022/04/02 10:47:47;;;;;;;4.60;1.92;;;9.00;47.00;;;;;;5018242;28;20036;-63
2022/04/02 10:50:17;;;;;;;4.32;1.75;;;8.90;46.60;;;;;;5038982;28;20496;-63
2022/04/02 10:52:46;;;;;;;4.63;2.00;;;8.90;46.60;;;;;;5034981;28;20039;-62
2022/04/02 10:55:17;;;;;;;3.22;1.45;;;8.80;46.50;;;;;;5042294;28;20037;-62
2022/04/02 10:57:44;;;;;;;5.43;2.00;;;8.80;46.30;;;;;;5053204;28;20060;-63
2022/04/02 11:00:11;;;;;;;5.53;1.98;;;8.80;46.30;;;;;;5037346;28;20033;-63
2022/04/02 11:02:49;;;;;;;3.88;1.58;;;9.00;46.10;;;;;;5035198;28;20469;-62
2022/04/02 11:05:17;;;;;;;5.53;1.65;;;9.30;45.30;;;;;;5039773;28;20033;-63
2022/04/02 11:07:49;;;;;;;3.72;1.60;;;9.70;45.00;;;;;;5042625;28;20044;-63
2022/04/02 11:10:21;;;;;;;3.47;1.70;;;10.20;44.40;;;;;;5051042;28;20037;-63
2022/04/02 11:12:49;;;;;;;5.03;2.10;;;10.70;43.80;;;;;;5052125;28;20052;-63
2022/04/02 11:15:19;;;;;;;4.40;1.63;;;11.00;43.60;;;;;;5056435;28;20312;-65
2022/04/02 11:17:59;;;;;;;4.63;1.80;;;11.40;43.30;;;;;;5035415;28;20512;-65
2022/04/02 11:20:30;;;;;;;6.22;1.75;;;11.50;42.90;;;;;;5035968;28;20115;-64
2022/04/02 11:22:57;;;;;;;3.22;1.50;;;11.30;43.10;;;;;;5061000;28;20043;-64
2022/04/02 11:25:29;;;;;;;5.85;1.73;;;11.00;43.30;;;;;;5066940;28;20064;-64
2022/04/02 11:28:01;;;;;;;5.45;1.98;;;10.70;43.70;;;;;;5063673;28;20032;-64
2022/04/02 11:30:31;;;;;;;6.60;1.80;;;10.50;44.00;;;;;;5054475;28;20063;-65
2022/04/02 11:33:21;;;;;;;4.63;1.93;;;10.40;44.50;;;;;;5055818;28;20366;-61
2022/04/02 11:35:56;;;;;;;5.78;2.00;;;10.40;44.10;;;;;;5070258;28;20047;-64
2022/04/02 11:38:25;;;;;;;4.45;1.65;;;10.30;44.00;;;;;;5073280;28;20101;-64
2022/04/02 11:41:04;;;;;;;3.88;1.50;;;10.20;44.10;;;;;;5061083;28;20036;-64
2022/04/02 11:43:31;;;;;;;4.68;1.85;;;10.10;43.70;;;;;;5055147;28;20033;-64
2022/04/02 11:46:02;;;;;;;3.50;1.67;;;10.10;43.50;;;;;;5055587;28;20048;-64
2022/04/02 11:48:32;;;;;;;3.40;1.30;;;10.30;43.10;;;;;;5055864;28;20167;-64
2022/04/02 11:51:12;;;;;;;4.72;1.42;;;10.40;42.70;;;;;;5055669;28;20029;-65
2022/04/02 11:53:38;;;;;;;3.33;1.50;;;10.80;42.30;;;;;;5055617;28;20091;-64
2022/04/02 11:56:21;;;;;;;4.85;1.65;;;10.90;42.00;;;;;;5055412;28;20032;-64
2022/04/02 11:58:48;;;;;;;4.78;1.90;;;10.80;41.50;;;;;;5055394;28;20111;-64
2022/04/02 12:01:14;;;;;;;3.97;1.52;;;10.60;41.80;;;;;;5054856;28;20119;-64
2022/04/02 12:03:41;;;;;;;4.20;1.65;;;10.50;42.20;;;;;;5055247;28;20365;-64
2022/04/02 12:06:11;;;;;;;6.00;1.85;;;10.40;42.60;;;;;;5055035;28;20036;-64
2022/04/02 12:08:40;;;;;;;4.75;2.00;;;10.30;42.70;;;;;;5063074;28;20029;-64
2022/04/02 12:11:09;;;;;;;5.05;1.88;;;10.20;43.00;;;;;;5073284;28;20032;-64
2022/04/02 12:13:36;;;;;;;4.68;1.70;;;10.20;43.30;;;;;;5072684;28;20028;-64
2022/04/02 12:16:13;;;;;;;5.20;1.90;;;10.40;43.40;;;;;;5054649;28;20024;-64
2022/04/02 12:18:57;;;;;;;5.43;2.00;;;10.70;43.20;;;;;;5064268;28;20039;-64
2022/04/02 12:21:43;;;;;;;4.63;1.70;;;10.80;43.10;;;;;;5065246;28;20202;-63
2022/04/02 12:24:11;;;;;;;5.50;1.70;;;10.90;43.30;;;;;;5053585;28;20323;-64
2022/04/02 12:26:37;;;;;;;5.32;1.80;;;10.80;43.50;;;;;;5055310;28;20032;-63
2022/04/02 12:29:04;;;;;;;4.97;1.85;;;10.60;43.80;;;;;;5058927;28;20158;-63
2022/04/02 12:31:34;;;;;;;3.10;1.55;;;10.40;44.10;;;;;;5053102;28;20099;-64
2022/04/02 12:34:03;;;;;;;3.60;1.70;;;10.30;45.10;;;;;;5064408;28;20074;-63
2022/04/02 12:36:31;;;;;;;3.78;1.70;;;10.10;44.70;;;;;;5074489;28;20029;-64
2022/04/02 12:39:02;;;;;;;3.90;1.60;;;10.00;44.90;;;;;;5054551;28;20461;-64
2022/04/02 12:41:28;;;;;;;5.03;1.60;;;9.80;45.00;;;;;;5054040;28;20033;-64
2022/04/02 12:44:03;;;;;;;5.05;1.90;;;9.70;45.20;;;;;;5068251;28;20119;-64
2022/04/02 12:46:29;;;;;;;3.25;1.60;;;9.60;45.40;;;;;;5072989;28;20048;-63
2022/04/02 12:48:55;;;;;;;4.35;1.80;;;9.60;45.50;;;;;;5054372;28;20040;-64
2022/04/02 12:51:23;;;;;;;5.57;1.77;;;9.50;45.60;;;;;;5054767;28;20450;-63
2022/04/02 12:53:55;;;;;;;4.88;1.50;;;9.40;45.80;;;;;;5054201;28;20033;-63
2022/04/02 12:56:26;;;;;;;8.57;1.88;;;9.40;46.00;;;;;;5054462;28;20446;-64
2022/04/02 12:58:53;;;;;;;3.70;1.52;;;9.50;46.20;;;;;;5057417;28;20030;-63
2022/04/02 13:01:30;;;;;;;3.55;1.52;;;9.60;46.30;;;;;;5054620;28;20025;-64
2022/04/02 13:04:02;;;;;;;4.80;1.35;;;9.60;46.10;;;;;;5054337;28;20047;-64
2022/04/02 13:06:34;;;;;;;4.85;1.90;;;9.70;46.00;;;;;;5053505;28;20048;-63
2022/04/02 13:09:04;;;;;;;4.75;1.77;;;9.60;45.80;;;;;;5055132;28;20029;-63
2022/04/02 13:11:40;;;;;;;5.35;1.58;;;9.70;45.80;;;;;;5052904;28;20366;-64
2022/04/02 13:14:14;;;;;;;5.00;1.60;;;9.80;45.70;;;;;;5069235;28;20036;-64
2022/04/02 13:16:41;;;;;;;3.70;1.50;;;9.80;45.50;;;;;;5034167;28;20030;-63
2022/04/02 13:22:02;;;;;;;3.75;1.45;;;9.90;45.10;;;;;;5034219;28;20048;-63